sensor_id;sensor_type;location;lat;lon;timestamp;pressure;altitude;pressure_sealevel;temperature;humidity
76832;BME280;65792;52.880;13.012;2022-12-13T00:01:39;100905.66;;;-3.17;90.65
76832;BME280;65792;52.880;13.012;2022-12-13T00:04:06;100900.59;;;-3.16;91.37
76832;BME280;65792;52.880;13.012;2022-12-13T00:06:32;100902.25;;;-3.15;91.48
76832;BME280;65792;52.880;13.012;2022-12-13T00:08:59;100903.13;;;-3.16;91.73
76832;BME280;65792;52.880;13.012;2022-12-13T00:11:25;100894.66;;;-3.10;91.70
76832;BME280;65792;52.880;13.012;2022-12-13T00:13:51;100896.38;;;-3.18;91.86
76832;BME280;65792;52.880;13.012;2022-12-13T00:16:19;100898.88;;;-3.14;92.25
76832;BME280;65792;52.880;13.012;2022-12-13T00:18:50;100889.59;;;-3.09;92.45
76832;BME280;65792;52.880;13.012;2022-12-13T00:21:18;100891.34;;;-3.20;92.01
76832;BME280;65792;52.880;13.012;2022-12-13T00:23:45;100892.97;;;-3.13;92.01
76832;BME280;65792;52.880;13.012;2022-12-13T00:26:12;100886.19;;;-3.06;92.16
76832;BME280;65792;52.880;13.012;2022-12-13T00:28:39;100890.47;;;-3.14;92.34
76832;BME280;65792;52.880;13.012;2022-12-13T00:31:05;100895.53;;;-3.16;92.45
76832;BME280;65792;52.880;13.012;2022-12-13T00:33:30;100890.47;;;-3.17;91.52
76832;BME280;65792;52.880;13.012;2022-12-13T00:35:56;100886.28;;;-3.20;91.72
76832;BME280;65792;52.880;13.012;2022-12-13T00:38:22;100886.28;;;-3.17;91.96
76832;BME280;65792;52.880;13.012;2022-12-13T00:40:49;100884.56;;;-3.15;91.57
76832;BME280;65792;52.880;13.012;2022-12-13T00:43:16;100882.91;;;-3.20;91.15
76832;BME280;65792;52.880;13.012;2022-12-13T00:45:42;100892.16;;;-3.18;91.12
76832;BME280;65792;52.880;13.012;2022-12-13T00:48:08;100891.34;;;-3.18;91.50
76832;BME280;65792;52.880;13.012;2022-12-13T00:50:34;100890.47;;;-3.13;91.84
76832;BME280;65792;52.880;13.012;2022-12-13T00:53:01;100893.03;;;-3.19;90.15
76832;BME280;65792;52.880;13.012;2022-12-13T00:55:27;100893.84;;;-3.17;90.24
76832;BME280;65792;52.880;13.012;2022-12-13T00:57:52;100894.66;;;-3.12;91.10
76832;BME280;65792;52.880;13.012;2022-12-13T01:00:18;100882.94;;;-3.25;90.71
76832;BME280;65792;52.880;13.012;2022-12-13T01:02:44;100889.66;;;-3.18;90.89
76832;BME280;65792;52.880;13.012;2022-12-13T01:05:11;100887.13;;;-3.19;90.01
76832;BME280;65792;52.880;13.012;2022-12-13T01:07:37;100887.94;;;-3.17;91.36
76832;BME280;65792;52.880;13.012;2022-12-13T01:10:06;100886.28;;;-3.20;90.69
76832;BME280;65792;52.880;13.012;2022-12-13T01:12:33;100886.28;;;-3.20;91.34
76832;BME280;65792;52.880;13.012;2022-12-13T01:14:59;100886.31;;;-3.26;91.47
76832;BME280;65792;52.880;13.012;2022-12-13T01:17:25;100885.44;;;-3.19;90.74
76832;BME280;65792;52.880;13.012;2022-12-13T01:19:50;100882.88;;;-3.16;91.46
76832;BME280;65792;52.880;13.012;2022-12-13T01:22:19;100881.22;;;-3.17;91.74
76832;BME280;65792;52.880;13.012;2022-12-13T01:24:45;100874.44;;;-3.13;91.84
76832;BME280;65792;52.880;13.012;2022-12-13T01:27:11;100871.09;;;-3.15;91.77
76832;BME280;65792;52.880;13.012;2022-12-13T01:29:39;100866.09;;;-3.23;91.70
76832;BME280;65792;52.880;13.012;2022-12-13T01:32:05;100874.47;;;-3.18;91.36
76832;BME280;65792;52.880;13.012;2022-12-13T01:34:30;100871.91;;;-3.13;91.31
76832;BME280;65792;52.880;13.012;2022-12-13T01:36:56;100875.31;;;-3.17;91.54
76832;BME280;65792;52.880;13.012;2022-12-13T01:39:21;100876.13;;;-3.14;92.18
76832;BME280;65792;52.880;13.012;2022-12-13T01:41:49;100875.31;;;-3.14;91.55
76832;BME280;65792;52.880;13.012;2022-12-13T01:47:23;100868.56;;;-3.17;92.05
76832;BME280;65792;52.880;13.012;2022-12-13T01:49:51;100871.91;;;-3.12;92.38
76832;BME280;65792;52.880;13.012;2022-12-13T01:52:18;100869.38;;;-3.12;91.88
76832;BME280;65792;52.880;13.012;2022-12-13T01:54:48;100867.75;;;-3.22;91.80
76832;BME280;65792;52.880;13.012;2022-12-13T01:57:17;100867.72;;;-3.17;92.47
76832;BME280;65792;52.880;13.012;2022-12-13T01:59:44;100869.41;;;-3.15;92.72
76832;BME280;65792;52.880;13.012;2022-12-13T02:02:13;100866.06;;;-3.20;92.58
76832;BME280;65792;52.880;13.012;2022-12-13T02:05:03;100867.72;;;-3.16;91.19
76832;BME280;65792;52.880;13.012;2022-12-13T02:07:31;100860.13;;;-3.13;91.65
76832;BME280;65792;52.880;13.012;2022-12-13T02:10:00;100867.72;;;-3.14;91.54
76832;BME280;65792;52.880;13.012;2022-12-13T02:12:29;100862.66;;;-3.13;91.44
76832;BME280;65792;52.880;13.012;2022-12-13T02:14:58;100861.00;;;-3.17;92.03
76832;BME280;65792;52.880;13.012;2022-12-13T02:18:13;100857.59;;;-3.13;91.90
76832;BME280;65792;52.880;13.012;2022-12-13T02:25:40;100862.66;;;-3.16;92.70
76832;BME280;65792;52.880;13.012;2022-12-13T02:28:14;100861.00;;;-3.20;92.22
76832;BME280;65792;52.880;13.012;2022-12-13T02:30:51;100864.38;;;-3.21;92.33
76832;BME280;65792;52.880;13.012;2022-12-13T02:40:58;100865.22;;;-3.20;92.33
76832;BME280;65792;52.880;13.012;2022-12-13T02:43:31;100866.09;;;-3.26;91.30
76832;BME280;65792;52.880;13.012;2022-12-13T02:46:02;100871.16;;;-3.27;90.87
76832;BME280;65792;52.880;13.012;2022-12-13T02:48:31;100868.59;;;-3.20;91.56
76832;BME280;65792;52.880;13.012;2022-12-13T02:50:59;100867.72;;;-3.17;91.70
76832;BME280;65792;52.880;13.012;2022-12-13T02:53:27;100859.28;;;-3.15;92.14
76832;BME280;65792;52.880;13.012;2022-12-13T02:55:53;100855.09;;;-3.19;92.44
76832;BME280;65792;52.880;13.012;2022-12-13T02:58:22;100855.94;;;-3.18;92.57
76832;BME280;65792;52.880;13.012;2022-12-13T03:03:25;100861.88;;;-3.24;91.11
76832;BME280;65792;52.880;13.012;2022-12-13T03:11:11;100858.50;;;-3.21;91.91
76832;BME280;65792;52.880;13.012;2022-12-13T03:13:58;100865.25;;;-3.23;92.54
76832;BME280;65792;52.880;13.012;2022-12-13T03:16:37;100860.97;;;-3.14;92.26
76832;BME280;65792;52.880;13.012;2022-12-13T03:19:09;100852.59;;;-3.23;92.29
76832;BME280;65792;52.880;13.012;2022-12-13T03:21:40;100856.81;;;-3.22;92.56
76832;BME280;65792;52.880;13.012;2022-12-13T03:24:06;100848.38;;;-3.21;92.33
76832;BME280;65792;52.880;13.012;2022-12-13T03:26:32;100854.28;;;-3.21;92.71
76832;BME280;65792;52.880;13.012;2022-12-13T03:28:57;100850.06;;;-3.20;93.34
76832;BME280;65792;52.880;13.012;2022-12-13T03:31:23;100846.72;;;-3.22;92.46
76832;BME280;65792;52.880;13.012;2022-12-13T03:33:48;100847.53;;;-3.19;92.62
76832;BME280;65792;52.880;13.012;2022-12-13T03:36:15;100845.91;;;-3.27;92.84
76832;BME280;65792;52.880;13.012;2022-12-13T03:38:43;100848.41;;;-3.24;92.55
76832;BME280;65792;52.880;13.012;2022-12-13T03:41:12;100841.72;;;-3.33;92.53
76832;BME280;65792;52.880;13.012;2022-12-13T03:43:39;100840.00;;;-3.29;92.13
76832;BME280;65792;52.880;13.012;2022-12-13T03:46:06;100832.44;;;-3.31;92.27
76832;BME280;65792;52.880;13.012;2022-12-13T03:48:31;100830.78;;;-3.33;91.49
76832;BME280;65792;52.880;13.012;2022-12-13T03:50:57;100832.41;;;-3.28;91.94
76832;BME280;65792;52.880;13.012;2022-12-13T03:53:23;100828.22;;;-3.29;92.09
76832;BME280;65792;52.880;13.012;2022-12-13T03:55:49;100834.09;;;-3.24;92.33
76832;BME280;65792;52.880;13.012;2022-12-13T03:58:15;100829.91;;;-3.29;91.75
76832;BME280;65792;52.880;13.012;2022-12-13T04:00:40;100831.53;;;-3.22;92.47
76832;BME280;65792;52.880;13.012;2022-12-13T04:03:06;100823.16;;;-3.29;92.51
76832;BME280;65792;52.880;13.012;2022-12-13T04:05:31;100828.31;;;-3.43;91.49
76832;BME280;65792;52.880;13.012;2022-12-13T04:07:57;100825.72;;;-3.37;91.64
76832;BME280;65792;52.880;13.012;2022-12-13T04:10:23;100821.47;;;-3.30;91.90
76832;BME280;65792;52.880;13.012;2022-12-13T04:12:49;100827.41;;;-3.34;92.42
76832;BME280;65792;52.880;13.012;2022-12-13T04:15:33;100821.47;;;-3.28;92.11
76832;BME280;65792;52.880;13.012;2022-12-13T04:17:59;100822.38;;;-3.37;92.22
76832;BME280;65792;52.880;13.012;2022-12-13T04:20:24;100813.91;;;-3.30;92.14
76832;BME280;65792;52.880;13.012;2022-12-13T04:22:50;100810.53;;;-3.29;92.70
76832;BME280;65792;52.880;13.012;2022-12-13T04:25:16;100813.94;;;-3.36;92.10
76832;BME280;65792;52.880;13.012;2022-12-13T04:27:41;100814.78;;;-3.36;92.23
76832;BME280;65792;52.880;13.012;2022-12-13T04:30:07;100815.63;;;-3.37;92.13
76832;BME280;65792;52.880;13.012;2022-12-13T04:32:33;100817.31;;;-3.37;91.57
76832;BME280;65792;52.880;13.012;2022-12-13T04:34:58;100814.72;;;-3.25;92.81
76832;BME280;65792;52.880;13.012;2022-12-13T04:37:24;100812.22;;;-3.32;92.43
76832;BME280;65792;52.880;13.012;2022-12-13T04:39:50;100815.56;;;-3.29;92.72
76832;BME280;65792;52.880;13.012;2022-12-13T04:42:15;100818.13;;;-3.32;92.77
76832;BME280;65792;52.880;13.012;2022-12-13T04:44:41;100824.03;;;-3.33;92.51
76832;BME280;65792;52.880;13.012;2022-12-13T04:47:07;100830.72;;;-3.26;92.95
76832;BME280;65792;52.880;13.012;2022-12-13T04:49:33;100835.81;;;-3.30;92.35
76832;BME280;65792;52.880;13.012;2022-12-13T04:52:00;100829.06;;;-3.28;92.63
76832;BME280;65792;52.880;13.012;2022-12-13T04:54:26;100835.81;;;-3.32;92.85
76832;BME280;65792;52.880;13.012;2022-12-13T04:56:51;100834.16;;;-3.36;93.01
76832;BME280;65792;52.880;13.012;2022-12-13T04:59:17;100838.38;;;-3.37;92.80
76832;BME280;65792;52.880;13.012;2022-12-13T05:01:43;100839.16;;;-3.30;92.54
76832;BME280;65792;52.880;13.012;2022-12-13T05:04:08;100828.28;;;-3.40;92.43
76832;BME280;65792;52.880;13.012;2022-12-13T05:06:34;100834.16;;;-3.36;92.66
76832;BME280;65792;52.880;13.012;2022-12-13T05:09:00;100826.56;;;-3.36;92.41
76832;BME280;65792;52.880;13.012;2022-12-13T05:11:26;100829.09;;;-3.36;92.40
76832;BME280;65792;52.880;13.012;2022-12-13T05:13:51;100825.75;;;-3.41;92.62
76832;BME280;65792;52.880;13.012;2022-12-13T05:16:17;100833.31;;;-3.37;92.84
76832;BME280;65792;52.880;13.012;2022-12-13T05:18:42;100829.97;;;-3.39;93.08
76832;BME280;65792;52.880;13.012;2022-12-13T05:21:10;100833.28;;;-3.33;92.90
76832;BME280;65792;52.880;13.012;2022-12-13T05:23:36;100840.06;;;-3.37;92.39
76832;BME280;65792;52.880;13.012;2022-12-13T05:26:02;100834.97;;;-3.29;92.71
76832;BME280;65792;52.880;13.012;2022-12-13T05:28:29;100834.09;;;-3.24;92.82
76832;BME280;65792;52.880;13.012;2022-12-13T05:30:56;100831.63;;;-3.35;92.60
76832;BME280;65792;52.880;13.012;2022-12-13T05:33:23;100831.59;;;-3.33;92.53
76832;BME280;65792;52.880;13.012;2022-12-13T05:35:50;100839.19;;;-3.31;93.31
76832;BME280;65792;52.880;13.012;2022-12-13T05:38:16;100834.16;;;-3.36;92.37
76832;BME280;65792;52.880;13.012;2022-12-13T05:40:43;100832.41;;;-3.28;92.60
76832;BME280;65792;52.880;13.012;2022-12-13T05:43:11;100828.25;;;-3.33;92.51
76832;BME280;65792;52.880;13.012;2022-12-13T05:45:37;100833.34;;;-3.40;92.13
76832;BME280;65792;52.880;13.012;2022-12-13T05:48:03;100830.81;;;-3.38;92.57
76832;BME280;65792;52.880;13.012;2022-12-13T05:50:29;100835.88;;;-3.41;92.83
76832;BME280;65792;52.880;13.012;2022-12-13T05:52:55;100841.78;;;-3.44;91.90
76832;BME280;65792;52.880;13.012;2022-12-13T05:55:20;100835.06;;;-3.46;92.25
76832;BME280;65792;52.880;13.012;2022-12-13T05:57:46;100835.00;;;-3.37;92.57
76832;BME280;65792;52.880;13.012;2022-12-13T06:00:12;100831.66;;;-3.42;92.03
76832;BME280;65792;52.880;13.012;2022-12-13T06:02:39;100844.28;;;-3.42;91.73
76832;BME280;65792;52.880;13.012;2022-12-13T06:05:09;100842.59;;;-3.37;92.29
76832;BME280;65792;52.880;13.012;2022-12-13T06:07:35;100849.31;;;-3.38;92.46
76832;BME280;65792;52.880;13.012;2022-12-13T06:10:02;100851.00;;;-3.35;92.97
76832;BME280;65792;52.880;13.012;2022-12-13T06:12:28;100856.09;;;-3.41;92.81
76832;BME280;65792;52.880;13.012;2022-12-13T06:14:54;100859.47;;;-3.42;91.83
76832;BME280;65792;52.880;13.012;2022-12-13T06:17:19;100861.13;;;-3.38;92.56
76832;BME280;65792;52.880;13.012;2022-12-13T06:19:49;100856.94;;;-3.45;92.37
76832;BME280;65792;52.880;13.012;2022-12-13T06:22:15;100866.16;;;-3.35;91.82
76832;BME280;65792;52.880;13.012;2022-12-13T06:24:41;100862.78;;;-3.32;92.86
76832;BME280;65792;52.880;13.012;2022-12-13T06:27:06;100872.91;;;-3.37;92.17
76832;BME280;65792;52.880;13.012;2022-12-13T06:29:32;100868.72;;;-3.44;92.56
76832;BME280;65792;52.880;13.012;2022-12-13T06:32:00;100868.72;;;-3.40;91.92
76832;BME280;65792;52.880;13.012;2022-12-13T06:34:26;100869.63;;;-3.51;92.67
76832;BME280;65792;52.880;13.012;2022-12-13T06:36:52;100868.78;;;-3.50;91.93
76832;BME280;65792;52.880;13.012;2022-12-13T06:39:18;100863.72;;;-3.47;91.91
76832;BME280;65792;52.880;13.012;2022-12-13T06:41:43;100861.16;;;-3.44;91.82
76832;BME280;65792;52.880;13.012;2022-12-13T06:44:10;100874.63;;;-3.45;92.29
76832;BME280;65792;52.880;13.012;2022-12-13T06:46:36;100872.09;;;-3.44;92.77
76832;BME280;65792;52.880;13.012;2022-12-13T06:49:02;100871.22;;;-3.40;92.58
76832;BME280;65792;52.880;13.012;2022-12-13T06:51:28;100878.88;;;-3.47;92.62
76832;BME280;65792;52.880;13.012;2022-12-13T06:53:53;100878.00;;;-3.43;92.26
76832;BME280;65792;52.880;13.012;2022-12-13T06:56:19;100872.19;;;-3.59;91.88
76832;BME280;65792;52.880;13.012;2022-12-13T06:58:44;100877.19;;;-3.48;92.35
76832;BME280;65792;52.880;13.012;2022-12-13T07:01:13;100878.91;;;-3.50;92.76
76832;BME280;65792;52.880;13.012;2022-12-13T07:03:39;100878.88;;;-3.47;92.69
76832;BME280;65792;52.880;13.012;2022-12-13T07:06:12;100883.94;;;-3.47;92.64
76832;BME280;65792;52.880;13.012;2022-12-13T07:08:39;100890.69;;;-3.52;92.71
76832;BME280;65792;52.880;13.012;2022-12-13T07:11:05;100900.78;;;-3.51;92.89
76832;BME280;65792;52.880;13.012;2022-12-13T07:13:31;100896.59;;;-3.53;92.42
76832;BME280;65792;52.880;13.012;2022-12-13T07:15:59;100897.31;;;-3.36;92.89
76832;BME280;65792;52.880;13.012;2022-12-13T07:18:25;100897.41;;;-3.50;92.52
76832;BME280;65792;52.880;13.012;2022-12-13T07:20:51;100906.66;;;-3.47;92.84
76832;BME280;65792;52.880;13.012;2022-12-13T07:23:17;100900.75;;;-3.46;92.69
76832;BME280;65792;52.880;13.012;2022-12-13T07:25:50;100902.47;;;-3.47;92.88
76832;BME280;65792;52.880;13.012;2022-12-13T07:28:16;100894.06;;;-3.53;92.13
76832;BME280;65792;52.880;13.012;2022-12-13T07:30:42;100896.50;;;-3.38;92.10
76832;BME280;65792;52.880;13.012;2022-12-13T07:33:08;100906.63;;;-3.44;91.50
76832;BME280;65792;52.880;13.012;2022-12-13T07:35:36;100904.16;;;-3.49;92.26
76832;BME280;65792;52.880;13.012;2022-12-13T07:38:02;100899.91;;;-3.45;92.17
76832;BME280;65792;52.880;13.012;2022-12-13T07:40:28;100896.56;;;-3.47;91.94
76832;BME280;65792;52.880;13.012;2022-12-13T07:42:55;100905.78;;;-3.45;91.81
76832;BME280;65792;52.880;13.012;2022-12-13T07:45:22;100898.28;;;-3.54;91.35
76832;BME280;65792;52.880;13.012;2022-12-13T07:47:48;100899.94;;;-3.51;91.75
76832;BME280;65792;52.880;13.012;2022-12-13T07:50:14;100894.91;;;-3.54;91.26
76832;BME280;65792;52.880;13.012;2022-12-13T07:52:40;100898.22;;;-3.45;91.76
76832;BME280;65792;52.880;13.012;2022-12-13T07:55:07;100894.06;;;-3.55;91.08
76832;BME280;65792;52.880;13.012;2022-12-13T07:57:33;100899.94;;;-3.48;91.49
76832;BME280;65792;52.880;13.012;2022-12-13T07:59:59;100905.00;;;-3.48;91.74
76832;BME280;65792;52.880;13.012;2022-12-13T08:02:25;100894.91;;;-3.51;91.79
76832;BME280;65792;52.880;13.012;2022-12-13T08:04:51;100903.31;;;-3.52;91.04
76832;BME280;65792;52.880;13.012;2022-12-13T08:07:17;100905.78;;;-3.43;91.09
76832;BME280;65792;52.880;13.012;2022-12-13T08:09:42;100905.88;;;-3.55;90.48
76832;BME280;65792;52.880;13.012;2022-12-13T08:12:08;100905.78;;;-3.45;91.28
76832;BME280;65792;52.880;13.012;2022-12-13T08:14:33;100916.78;;;-3.47;91.07
76832;BME280;65792;52.880;13.012;2022-12-13T08:16:59;100908.31;;;-3.43;91.93
76832;BME280;65792;52.880;13.012;2022-12-13T08:19:25;100913.34;;;-3.37;92.24
76832;BME280;65792;52.880;13.012;2022-12-13T08:21:51;100920.16;;;-3.53;91.15
76832;BME280;65792;52.880;13.012;2022-12-13T08:24:17;100925.22;;;-3.51;91.22
76832;BME280;65792;52.880;13.012;2022-12-13T08:26:43;100920.94;;;-3.42;91.46
76832;BME280;65792;52.880;13.012;2022-12-13T08:29:09;100930.25;;;-3.51;90.90
76832;BME280;65792;52.880;13.012;2022-12-13T08:31:36;100924.38;;;-3.49;91.43
76832;BME280;65792;52.880;13.012;2022-12-13T08:34:01;100922.63;;;-3.41;91.45
76832;BME280;65792;52.880;13.012;2022-12-13T08:36:27;100930.16;;;-3.33;92.05
76832;BME280;65792;52.880;13.012;2022-12-13T08:38:56;100930.16;;;-3.30;91.33
76832;BME280;65792;52.880;13.012;2022-12-13T08:41:23;100930.19;;;-3.41;90.44
76832;BME280;65792;52.880;13.012;2022-12-13T08:43:49;100928.56;;;-3.49;91.33
76832;BME280;65792;52.880;13.012;2022-12-13T08:46:15;100929.34;;;-3.40;90.58
76832;BME280;65792;52.880;13.012;2022-12-13T08:48:40;100937.75;;;-3.35;91.06
76832;BME280;65792;52.880;13.012;2022-12-13T08:51:08;100939.47;;;-3.43;90.82
76832;BME280;65792;52.880;13.012;2022-12-13T08:53:36;100938.63;;;-3.46;90.18
76832;BME280;65792;52.880;13.012;2022-12-13T08:56:08;100932.69;;;-3.36;90.72
76832;BME280;65792;52.880;13.012;2022-12-13T08:58:36;100945.31;;;-3.30;91.19
76832;BME280;65792;52.880;13.012;2022-12-13T09:01:05;100940.28;;;-3.39;90.26
76832;BME280;65792;52.880;13.012;2022-12-13T09:03:31;100936.06;;;-3.39;89.90
76832;BME280;65792;52.880;13.012;2022-12-13T09:05:56;100937.72;;;-3.28;90.24
76832;BME280;65792;52.880;13.012;2022-12-13T09:08:22;100935.16;;;-3.24;90.34
76832;BME280;65792;52.880;13.012;2022-12-13T09:11:08;100939.34;;;-3.20;90.84
76832;BME280;65792;52.880;13.012;2022-12-13T09:13:35;100940.25;;;-3.31;90.44
76832;BME280;65792;52.880;13.012;2022-12-13T09:16:06;100954.53;;;-3.23;90.04
76832;BME280;65792;52.880;13.012;2022-12-13T09:18:33;100947.84;;;-3.36;90.11
76832;BME280;65792;52.880;13.012;2022-12-13T09:20:59;100947.78;;;-3.22;90.25
76832;BME280;65792;52.880;13.012;2022-12-13T09:23:25;100951.22;;;-3.31;89.80
76832;BME280;65792;52.880;13.012;2022-12-13T09:25:57;100946.94;;;-3.18;90.31
76832;BME280;65792;52.880;13.012;2022-12-13T09:28:25;100959.53;;;-3.11;90.39
76832;BME280;65792;52.880;13.012;2022-12-13T09:30:50;100947.78;;;-3.18;89.82
76832;BME280;65792;52.880;13.012;2022-12-13T09:33:16;100949.44;;;-3.14;89.93
76832;BME280;65792;52.880;13.012;2022-12-13T09:35:42;100953.69;;;-3.19;90.01
76832;BME280;65792;52.880;13.012;2022-12-13T09:38:07;100958.88;;;-3.48;88.92
76832;BME280;65792;52.880;13.012;2022-12-13T09:40:34;100949.53;;;-3.32;89.37
76832;BME280;65792;52.880;13.012;2022-12-13T09:43:02;100949.50;;;-3.26;89.84
76832;BME280;65792;52.880;13.012;2022-12-13T09:45:28;100949.47;;;-3.20;90.03
76832;BME280;65792;52.880;13.012;2022-12-13T09:47:56;100947.78;;;-3.18;89.07
76832;BME280;65792;52.880;13.012;2022-12-13T09:50:31;100944.41;;;-3.17;89.61
76832;BME280;65792;52.880;13.012;2022-12-13T09:52:59;100947.78;;;-3.16;89.29
76832;BME280;65792;52.880;13.012;2022-12-13T09:55:27;100942.72;;;-3.21;89.01
76832;BME280;65792;52.880;13.012;2022-12-13T09:57:56;100940.97;;;-3.07;89.05
76832;BME280;65792;52.880;13.012;2022-12-13T10:00:24;100945.25;;;-3.21;88.56
76832;BME280;65792;52.880;13.012;2022-12-13T10:02:55;100942.72;;;-3.19;88.96
76832;BME280;65792;52.880;13.012;2022-12-13T10:05:30;100951.16;;;-3.22;88.71
76832;BME280;65792;52.880;13.012;2022-12-13T10:07:58;100946.97;;;-3.23;88.33
76832;BME280;65792;52.880;13.012;2022-12-13T10:10:25;100946.16;;;-3.31;88.74
76832;BME280;65792;52.880;13.012;2022-12-13T10:13:05;100946.13;;;-3.28;88.60
76832;BME280;65792;52.880;13.012;2022-12-13T10:15:33;100945.22;;;-3.12;88.82
76832;BME280;65792;52.880;13.012;2022-12-13T10:18:03;100945.28;;;-3.24;88.00
76832;BME280;65792;52.880;13.012;2022-12-13T10:20:31;100943.53;;;-3.13;87.92
76832;BME280;65792;52.880;13.012;2022-12-13T10:22:58;100950.16;;;-2.98;88.73
76832;BME280;65792;52.880;13.012;2022-12-13T10:25:59;100941.72;;;-2.92;88.75
76832;BME280;65792;52.880;13.012;2022-12-13T10:28:30;100940.06;;;-2.99;88.95
76832;BME280;65792;52.880;13.012;2022-12-13T10:30:57;100944.41;;;-3.20;87.96
76832;BME280;65792;52.880;13.012;2022-12-13T10:33:24;100933.38;;;-3.04;88.55
76832;BME280;65792;52.880;13.012;2022-12-13T10:36:15;100935.03;;;-3.03;88.12
76832;BME280;65792;52.880;13.012;2022-12-13T10:38:53;100931.75;;;-3.14;88.78
76832;BME280;65792;52.880;13.012;2022-12-13T10:41:32;100926.53;;;-2.92;87.89
76832;BME280;65792;52.880;13.012;2022-12-13T10:46:39;100929.88;;;-2.86;88.59
76832;BME280;65792;52.880;13.012;2022-12-13T10:52:38;100929.00;;;-2.83;88.32
76832;BME280;65792;52.880;13.012;2022-12-13T10:55:26;100925.81;;;-3.07;87.80
76832;BME280;65792;52.880;13.012;2022-12-13T10:57:55;100925.59;;;-2.76;88.77
76832;BME280;65792;52.880;13.012;2022-12-13T11:00:35;100923.84;;;-2.70;87.74
76832;BME280;65792;52.880;13.012;2022-12-13T11:03:03;100924.72;;;-2.72;87.48
76832;BME280;65792;52.880;13.012;2022-12-13T11:05:33;100919.69;;;-2.75;86.44
76832;BME280;65792;52.880;13.012;2022-12-13T11:10:41;100927.16;;;-2.61;86.22
76832;BME280;65792;52.880;13.012;2022-12-13T11:13:07;100916.28;;;-2.71;87.28
76832;BME280;65792;52.880;13.012;2022-12-13T11:15:34;100922.88;;;-2.58;87.33
76832;BME280;65792;52.880;13.012;2022-12-13T11:18:09;100911.25;;;-2.74;86.57
76832;BME280;65792;52.880;13.012;2022-12-13T11:20:58;100906.13;;;-2.68;86.61
76832;BME280;65792;52.880;13.012;2022-12-13T11:23:32;100915.28;;;-2.55;86.04
76832;BME280;65792;52.880;13.012;2022-12-13T11:26:00;100901.09;;;-2.73;86.19
76832;BME280;65792;52.880;13.012;2022-12-13T11:37:03;100898.34;;;-2.47;86.05
76832;BME280;65792;52.880;13.012;2022-12-13T11:39:34;100900.19;;;-2.64;86.15
76832;BME280;65792;52.880;13.012;2022-12-13T11:47:32;100901.88;;;-2.61;85.07
76832;BME280;65792;52.880;13.012;2022-12-13T11:50:02;100902.63;;;-2.56;86.39
76832;BME280;65792;52.880;13.012;2022-12-13T11:52:34;100900.94;;;-2.56;85.69
76832;BME280;65792;52.880;13.012;2022-12-13T11:55:08;100900.25;;;-2.70;84.71
76832;BME280;65792;52.880;13.012;2022-12-13T11:57:56;100900.28;;;-2.75;85.44
76832;BME280;65792;52.880;13.012;2022-12-13T12:05:44;100891.78;;;-2.64;85.98
76832;BME280;65792;52.880;13.012;2022-12-13T12:08:16;100891.66;;;-2.55;86.00
76832;BME280;65792;52.880;13.012;2022-12-13T12:10:45;100895.13;;;-2.64;87.15
76832;BME280;65792;52.880;13.012;2022-12-13T12:13:28;100892.69;;;-2.76;86.75
76832;BME280;65792;52.880;13.012;2022-12-13T12:16:08;100899.34;;;-2.61;86.45
76832;BME280;65792;52.880;13.012;2022-12-13T12:18:37;100892.63;;;-2.65;87.30
76832;BME280;65792;52.880;13.012;2022-12-13T12:21:36;100904.53;;;-2.81;86.97
76832;BME280;65792;52.880;13.012;2022-12-13T12:24:15;100903.63;;;-2.70;87.62
76832;BME280;65792;52.880;13.012;2022-12-13T12:29:59;100901.97;;;-2.77;87.90
76832;BME280;65792;52.880;13.012;2022-12-13T12:35:09;100900.28;;;-2.73;87.14
76832;BME280;65792;52.880;13.012;2022-12-13T12:38:01;100907.75;;;-2.61;87.70
76832;BME280;65792;52.880;13.012;2022-12-13T12:57:08;100892.97;;;-3.10;86.95
76832;BME280;65792;52.880;13.012;2022-12-13T12:59:48;100891.91;;;-2.81;87.75
76832;BME280;65792;52.880;13.012;2022-12-13T13:05:28;100889.19;;;-2.60;87.92
76832;BME280;65792;52.880;13.012;2022-12-13T13:08:02;100894.53;;;-2.98;86.71
76832;BME280;65792;52.880;13.012;2022-12-13T13:10:30;100894.56;;;-3.03;86.81
76832;BME280;65792;52.880;13.012;2022-12-13T13:12:56;100899.59;;;-2.98;87.27
76832;BME280;65792;52.880;13.012;2022-12-13T13:18:00;100894.44;;;-2.84;87.10
76832;BME280;65792;52.880;13.012;2022-12-13T13:20:27;100892.13;;;-3.10;86.53
76832;BME280;65792;52.880;13.012;2022-12-13T13:22:56;100890.44;;;-3.08;86.37
76832;BME280;65792;52.880;13.012;2022-12-13T13:25:28;100891.22;;;-3.03;86.67
76832;BME280;65792;52.880;13.012;2022-12-13T13:30:30;100894.56;;;-2.99;86.51
76832;BME280;65792;52.880;13.012;2022-12-13T13:32:57;100888.72;;;-3.05;86.16
76832;BME280;65792;52.880;13.012;2022-12-13T13:40:41;100894.56;;;-2.99;86.68
76832;BME280;65792;52.880;13.012;2022-12-13T13:45:52;100890.34;;;-2.99;86.25
76832;BME280;65792;52.880;13.012;2022-12-13T13:51:57;100895.38;;;-2.96;86.49
76832;BME280;65792;52.880;13.012;2022-12-13T13:57:45;100900.53;;;-3.05;87.11
76832;BME280;65792;52.880;13.012;2022-12-13T14:27:53;100893.03;;;-3.23;89.02
76832;BME280;65792;52.880;13.012;2022-12-13T14:30:23;100886.28;;;-3.20;89.01
76832;BME280;65792;52.880;13.012;2022-12-13T14:32:50;100882.13;;;-3.28;88.87
76832;BME280;65792;52.880;13.012;2022-12-13T14:35:28;100886.34;;;-3.29;88.39
76832;BME280;65792;52.880;13.012;2022-12-13T14:38:02;100890.56;;;-3.29;88.87
76832;BME280;65792;52.880;13.012;2022-12-13T14:40:31;100887.19;;;-3.33;88.58
76832;BME280;65792;52.880;13.012;2022-12-13T14:42:58;100888.94;;;-3.43;88.39
76832;BME280;65792;52.880;13.012;2022-12-13T14:45:33;100881.41;;;-3.47;88.80
76832;BME280;65792;52.880;13.012;2022-12-13T14:48:14;100885.56;;;-3.43;89.14
76832;BME280;65792;52.880;13.012;2022-12-13T14:50:42;100888.94;;;-3.44;89.67
76832;BME280;65792;52.880;13.012;2022-12-13T14:53:22;100897.38;;;-3.45;89.53